sensor_id;sensor_type;location;lat;lon;timestamp;P1;durP1;ratioP1;P2;durP2;ratioP2
47866;SDS011;33628;50.806;11.586;2023-12-20T00:00:58;9.35;;;4.43;;
47866;SDS011;33628;50.806;11.586;2023-12-20T00:03:25;10.20;;;3.40;;
47866;SDS011;33628;50.806;11.586;2023-12-20T00:05:51;8.57;;;3.33;;
47866;SDS011;33628;50.806;11.586;2023-12-20T00:08:19;5.82;;;2.63;;
47866;SDS011;33628;50.806;11.586;2023-12-20T00:10:46;5.00;;;2.38;;
47866;SDS011;33628;50.806;11.586;2023-12-20T00:13:13;2.90;;;1.95;;
47866;SDS011;33628;50.806;11.586;2023-12-20T00:15:39;3.45;;;2.08;;
47866;SDS011;33628;50.806;11.586;2023-12-20T00:18:06;5.25;;;1.90;;
47866;SDS011;33628;50.806;11.586;2023-12-20T00:20:33;3.15;;;2.03;;
47866;SDS011;33628;50.806;11.586;2023-12-20T00:22:59;2.63;;;1.77;;
47866;SDS011;33628;50.806;11.586;2023-12-20T00:25:27;2.17;;;1.60;;
47866;SDS011;33628;50.806;11.586;2023-12-20T00:27:54;2.10;;;1.45;;
47866;SDS011;33628;50.806;11.586;2023-12-20T00:30:21;2.70;;;1.80;;
47866;SDS011;33628;50.806;11.586;2023-12-20T00:32:48;2.63;;;1.60;;
47866;SDS011;33628;50.806;11.586;2023-12-20T00:35:14;3.28;;;1.80;;
47866;SDS011;33628;50.806;11.586;2023-12-20T00:37:43;3.40;;;1.88;;
47866;SDS011;33628;50.806;11.586;2023-12-20T00:40:10;2.72;;;2.00;;
47866;SDS011;33628;50.806;11.586;2023-12-20T00:42:39;3.88;;;2.05;;
47866;SDS011;33628;50.806;11.586;2023-12-20T00:45:05;3.67;;;1.98;;
47866;SDS011;33628;50.806;11.586;2023-12-20T00:47:32;2.58;;;1.80;;
47866;SDS011;33628;50.806;11.586;2023-12-20T00:49:59;3.25;;;2.00;;
47866;SDS011;33628;50.806;11.586;2023-12-20T00:52:26;2.53;;;1.92;;
47866;SDS011;33628;50.806;11.586;2023-12-20T00:54:52;3.15;;;1.70;;
47866;SDS011;33628;50.806;11.586;2023-12-20T00:57:19;3.50;;;2.40;;
47866;SDS011;33628;50.806;11.586;2023-12-20T00:59:47;2.75;;;2.17;;
47866;SDS011;33628;50.806;11.586;2023-12-20T01:02:13;2.83;;;1.85;;
47866;SDS011;33628;50.806;11.586;2023-12-20T01:04:40;3.13;;;2.30;;
47866;SDS011;33628;50.806;11.586;2023-12-20T01:07:07;6.45;;;1.70;;
47866;SDS011;33628;50.806;11.586;2023-12-20T01:09:34;3.03;;;1.48;;
47866;SDS011;33628;50.806;11.586;2023-12-20T01:12:00;2.47;;;1.27;;
47866;SDS011;33628;50.806;11.586;2023-12-20T01:14:27;2.13;;;1.35;;
47866;SDS011;33628;50.806;11.586;2023-12-20T01:16:55;1.98;;;1.05;;
47866;SDS011;33628;50.806;11.586;2023-12-20T01:19:21;3.42;;;1.15;;
47866;SDS011;33628;50.806;11.586;2023-12-20T01:21:49;2.53;;;1.45;;
47866;SDS011;33628;50.806;11.586;2023-12-20T01:24:16;1.75;;;1.10;;
47866;SDS011;33628;50.806;11.586;2023-12-20T01:26:42;1.67;;;0.80;;
47866;SDS011;33628;50.806;11.586;2023-12-20T01:29:09;1.20;;;0.80;;
47866;SDS011;33628;50.806;11.586;2023-12-20T01:31:36;1.17;;;0.80;;
47866;SDS011;33628;50.806;11.586;2023-12-20T01:34:04;1.98;;;0.80;;
47866;SDS011;33628;50.806;11.586;2023-12-20T01:36:33;2.72;;;0.70;;
47866;SDS011;33628;50.806;11.586;2023-12-20T01:38:59;1.17;;;0.80;;
47866;SDS011;33628;50.806;11.586;2023-12-20T01:41:26;0.82;;;0.55;;
47866;SDS011;33628;50.806;11.586;2023-12-20T01:43:52;1.02;;;0.73;;
47866;SDS011;33628;50.806;11.586;2023-12-20T01:46:19;1.52;;;0.73;;
47866;SDS011;33628;50.806;11.586;2023-12-20T01:48:46;0.45;;;0.40;;
47866;SDS011;33628;50.806;11.586;2023-12-20T01:51:15;0.40;;;0.40;;
47866;SDS011;33628;50.806;11.586;2023-12-20T01:53:41;0.30;;;0.30;;
47866;SDS011;33628;50.806;11.586;2023-12-20T01:56:08;1.10;;;0.60;;
47866;SDS011;33628;50.806;11.586;2023-12-20T01:58:36;0.80;;;0.40;;
47866;SDS011;33628;50.806;11.586;2023-12-20T02:01:05;0.50;;;0.35;;
47866;SDS011;33628;50.806;11.586;2023-12-20T02:03:31;0.57;;;0.32;;
47866;SDS011;33628;50.806;11.586;2023-12-20T02:05:58;0.30;;;0.20;;
47866;SDS011;33628;50.806;11.586;2023-12-20T02:08:26;0.32;;;0.30;;
47866;SDS011;33628;50.806;11.586;2023-12-20T02:10:52;1.77;;;0.50;;
47866;SDS011;33628;50.806;11.586;2023-12-20T02:13:20;0.55;;;0.40;;
47866;SDS011;33628;50.806;11.586;2023-12-20T02:15:46;0.57;;;0.40;;
47866;SDS011;33628;50.806;11.586;2023-12-20T02:18:13;1.08;;;0.40;;
47866;SDS011;33628;50.806;11.586;2023-12-20T02:20:42;0.93;;;0.45;;
47866;SDS011;33628;50.806;11.586;2023-12-20T02:23:10;2.63;;;0.30;;
47866;SDS011;33628;50.806;11.586;2023-12-20T02:25:36;1.30;;;0.30;;
47866;SDS011;33628;50.806;11.586;2023-12-20T02:28:05;1.00;;;0.50;;
47866;SDS011;33628;50.806;11.586;2023-12-20T02:30:32;0.45;;;0.40;;
47866;SDS011;33628;50.806;11.586;2023-12-20T02:32:59;0.43;;;0.20;;
47866;SDS011;33628;50.806;11.586;2023-12-20T02:35:26;0.70;;;0.30;;
47866;SDS011;33628;50.806;11.586;2023-12-20T02:37:52;0.60;;;0.30;;
47866;SDS011;33628;50.806;11.586;2023-12-20T02:40:21;0.50;;;0.47;;
47866;SDS011;33628;50.806;11.586;2023-12-20T02:42:47;0.73;;;0.50;;
47866;SDS011;33628;50.806;11.586;2023-12-20T02:45:14;0.45;;;0.40;;
47866;SDS011;33628;50.806;11.586;2023-12-20T02:47:40;0.70;;;0.45;;
47866;SDS011;33628;50.806;11.586;2023-12-20T02:50:07;0.35;;;0.30;;
47866;SDS011;33628;50.806;11.586;2023-12-20T02:52:34;0.47;;;0.40;;
47866;SDS011;33628;50.806;11.586;2023-12-20T02:55:00;0.70;;;0.50;;
47866;SDS011;33628;50.806;11.586;2023-12-20T02:57:28;0.50;;;0.50;;
47866;SDS011;33628;50.806;11.586;2023-12-20T02:59:55;0.50;;;0.50;;
47866;SDS011;33628;50.806;11.586;2023-12-20T03:02:21;0.88;;;0.50;;
47866;SDS011;33628;50.806;11.586;2023-12-20T03:04:48;0.65;;;0.30;;
47866;SDS011;33628;50.806;11.586;2023-12-20T03:07:14;0.30;;;0.30;;
47866;SDS011;33628;50.806;11.586;2023-12-20T03:09:41;0.55;;;0.40;;
47866;SDS011;33628;50.806;11.586;2023-12-20T03:12:08;0.50;;;0.50;;
47866;SDS011;33628;50.806;11.586;2023-12-20T03:14:36;0.85;;;0.45;;
47866;SDS011;33628;50.806;11.586;2023-12-20T03:17:02;0.20;;;0.15;;
47866;SDS011;33628;50.806;11.586;2023-12-20T03:19:29;0.45;;;0.22;;
47866;SDS011;33628;50.806;11.586;2023-12-20T03:21:56;0.40;;;0.30;;
47866;SDS011;33628;50.806;11.586;2023-12-20T03:24:22;1.25;;;0.45;;
47866;SDS011;33628;50.806;11.586;2023-12-20T03:26:49;2.47;;;0.30;;
47866;SDS011;33628;50.806;11.586;2023-12-20T03:29:15;0.22;;;0.22;;
47866;SDS011;33628;50.806;11.586;2023-12-20T03:31:43;0.20;;;0.20;;
47866;SDS011;33628;50.806;11.586;2023-12-20T03:34:10;1.70;;;0.30;;
47866;SDS011;33628;50.806;11.586;2023-12-20T03:36:37;0.20;;;0.20;;
47866;SDS011;33628;50.806;11.586;2023-12-20T03:39:03;0.15;;;0.15;;
47866;SDS011;33628;50.806;11.586;2023-12-20T03:41:30;0.13;;;0.13;;
47866;SDS011;33628;50.806;11.586;2023-12-20T03:43:57;0.57;;;0.22;;
47866;SDS011;33628;50.806;11.586;2023-12-20T03:46:24;0.30;;;0.20;;
47866;SDS011;33628;50.806;11.586;2023-12-20T03:48:52;0.40;;;0.30;;
47866;SDS011;33628;50.806;11.586;2023-12-20T03:51:18;0.20;;;0.20;;
47866;SDS011;33628;50.806;11.586;2023-12-20T03:53:45;0.20;;;0.20;;
47866;SDS011;33628;50.806;11.586;2023-12-20T03:56:11;0.10;;;0.10;;
47866;SDS011;33628;50.806;11.586;2023-12-20T03:58:38;0.73;;;0.30;;
47866;SDS011;33628;50.806;11.586;2023-12-20T04:01:08;0.70;;;0.40;;
47866;SDS011;33628;50.806;11.586;2023-12-20T04:03:36;2.38;;;0.70;;
47866;SDS011;33628;50.806;11.586;2023-12-20T04:06:05;1.52;;;0.60;;
47866;SDS011;33628;50.806;11.586;2023-12-20T04:08:31;0.63;;;0.40;;
47866;SDS011;33628;50.806;11.586;2023-12-20T04:10:58;0.35;;;0.30;;
47866;SDS011;33628;50.806;11.586;2023-12-20T04:13:24;0.30;;;0.30;;
47866;SDS011;33628;50.806;11.586;2023-12-20T04:15:51;1.85;;;0.40;;
47866;SDS011;33628;50.806;11.586;2023-12-20T04:18:18;0.40;;;0.40;;
47866;SDS011;33628;50.806;11.586;2023-12-20T04:20:44;0.20;;;0.20;;
47866;SDS011;33628;50.806;11.586;2023-12-20T04:23:12;0.88;;;0.28;;
47866;SDS011;33628;50.806;11.586;2023-12-20T04:29:39;0.80;;;0.30;;
47866;SDS011;33628;50.806;11.586;2023-12-20T04:32:24;0.40;;;0.20;;
47866;SDS011;33628;50.806;11.586;2023-12-20T04:35:10;0.20;;;0.20;;
47866;SDS011;33628;50.806;11.586;2023-12-20T04:37:36;0.40;;;0.30;;
47866;SDS011;33628;50.806;11.586;2023-12-20T04:40:06;0.30;;;0.30;;
47866;SDS011;33628;50.806;11.586;2023-12-20T04:42:34;1.23;;;0.25;;
47866;SDS011;33628;50.806;11.586;2023-12-20T04:45:00;0.30;;;0.20;;
47866;SDS011;33628;50.806;11.586;2023-12-20T04:47:27;0.60;;;0.30;;
47866;SDS011;33628;50.806;11.586;2023-12-20T04:49:54;0.43;;;0.20;;
47866;SDS011;33628;50.806;11.586;2023-12-20T04:52:20;0.30;;;0.20;;
47866;SDS011;33628;50.806;11.586;2023-12-20T04:54:47;1.50;;;0.40;;
47866;SDS011;33628;50.806;11.586;2023-12-20T04:57:15;1.45;;;0.30;;
47866;SDS011;33628;50.806;11.586;2023-12-20T04:59:42;0.40;;;0.40;;
47866;SDS011;33628;50.806;11.586;2023-12-20T05:02:09;1.00;;;0.30;;
47866;SDS011;33628;50.806;11.586;2023-12-20T05:04:36;1.10;;;0.57;;
47866;SDS011;33628;50.806;11.586;2023-12-20T05:07:03;0.80;;;0.47;;
47866;SDS011;33628;50.806;11.586;2023-12-20T05:09:31;2.92;;;0.60;;
47866;SDS011;33628;50.806;11.586;2023-12-20T05:11:57;4.93;;;1.77;;
47866;SDS011;33628;50.806;11.586;2023-12-20T05:14:26;2.72;;;1.40;;
47866;SDS011;33628;50.806;11.586;2023-12-20T05:16:53;3.80;;;1.95;;
47866;SDS011;33628;50.806;11.586;2023-12-20T05:19:20;2.78;;;1.40;;
47866;SDS011;33628;50.806;11.586;2023-12-20T05:21:48;2.42;;;1.80;;
47866;SDS011;33628;50.806;11.586;2023-12-20T05:24:15;2.53;;;1.40;;
47866;SDS011;33628;50.806;11.586;2023-12-20T05:26:41;3.47;;;1.60;;
47866;SDS011;33628;50.806;11.586;2023-12-20T05:29:08;3.10;;;1.30;;
47866;SDS011;33628;50.806;11.586;2023-12-20T05:31:36;3.20;;;1.63;;
47866;SDS011;33628;50.806;11.586;2023-12-20T05:34:03;2.80;;;1.98;;
47866;SDS011;33628;50.806;11.586;2023-12-20T05:36:29;2.58;;;1.70;;
47866;SDS011;33628;50.806;11.586;2023-12-20T05:38:56;2.80;;;1.42;;
47866;SDS011;33628;50.806;11.586;2023-12-20T05:41:22;2.78;;;1.50;;
47866;SDS011;33628;50.806;11.586;2023-12-20T05:43:49;3.10;;;1.88;;
47866;SDS011;33628;50.806;11.586;2023-12-20T05:46:19;2.40;;;1.90;;
47866;SDS011;33628;50.806;11.586;2023-12-20T05:48:48;2.40;;;2.05;;
47866;SDS011;33628;50.806;11.586;2023-12-20T05:51:15;2.05;;;1.70;;
47866;SDS011;33628;50.806;11.586;2023-12-20T05:53:41;2.08;;;1.30;;
47866;SDS011;33628;50.806;11.586;2023-12-20T05:56:08;3.72;;;2.65;;
47866;SDS011;33628;50.806;11.586;2023-12-20T05:58:34;1.70;;;1.35;;
47866;SDS011;33628;50.806;11.586;2023-12-20T06:01:03;2.20;;;1.60;;
47866;SDS011;33628;50.806;11.586;2023-12-20T06:03:30;1.08;;;0.93;;
47866;SDS011;33628;50.806;11.586;2023-12-20T06:05:58;0.80;;;0.63;;
47866;SDS011;33628;50.806;11.586;2023-12-20T06:08:26;3.50;;;1.17;;
47866;SDS011;33628;50.806;11.586;2023-12-20T06:10:53;2.78;;;1.50;;
47866;SDS011;33628;50.806;11.586;2023-12-20T06:13:19;1.75;;;1.38;;
47866;SDS011;33628;50.806;11.586;2023-12-20T06:15:46;2.42;;;1.00;;
47866;SDS011;33628;50.806;11.586;2023-12-20T06:18:12;1.77;;;1.27;;
47866;SDS011;33628;50.806;11.586;2023-12-20T06:20:39;2.97;;;1.73;;
47866;SDS011;33628;50.806;11.586;2023-12-20T06:23:07;2.22;;;1.50;;
47866;SDS011;33628;50.806;11.586;2023-12-20T06:25:34;2.17;;;1.42;;
47866;SDS011;33628;50.806;11.586;2023-12-20T06:28:00;1.70;;;1.23;;
47866;SDS011;33628;50.806;11.586;2023-12-20T06:30:27;4.20;;;1.55;;
47866;SDS011;33628;50.806;11.586;2023-12-20T06:32:54;2.35;;;1.50;;
47866;SDS011;33628;50.806;11.586;2023-12-20T06:35:20;2.75;;;1.50;;
47866;SDS011;33628;50.806;11.586;2023-12-20T06:37:47;2.00;;;1.30;;
47866;SDS011;33628;50.806;11.586;2023-12-20T06:40:15;3.85;;;2.00;;
47866;SDS011;33628;50.806;11.586;2023-12-20T06:42:42;4.50;;;2.00;;
47866;SDS011;33628;50.806;11.586;2023-12-20T06:45:11;5.13;;;1.90;;
47866;SDS011;33628;50.806;11.586;2023-12-20T06:47:38;2.33;;;1.83;;
47866;SDS011;33628;50.806;11.586;2023-12-20T06:50:05;3.90;;;2.70;;
47866;SDS011;33628;50.806;11.586;2023-12-20T06:52:32;3.08;;;2.28;;
47866;SDS011;33628;50.806;11.586;2023-12-20T06:54:58;4.05;;;2.30;;
47866;SDS011;33628;50.806;11.586;2023-12-20T06:57:26;3.10;;;2.17;;
47866;SDS011;33628;50.806;11.586;2023-12-20T06:59:53;6.07;;;2.22;;
47866;SDS011;33628;50.806;11.586;2023-12-20T07:02:20;3.38;;;2.38;;
47866;SDS011;33628;50.806;11.586;2023-12-20T07:04:48;6.55;;;3.50;;
47866;SDS011;33628;50.806;11.586;2023-12-20T07:07:14;6.45;;;3.60;;
47866;SDS011;33628;50.806;11.586;2023-12-20T07:09:41;5.70;;;3.42;;
47866;SDS011;33628;50.806;11.586;2023-12-20T07:12:08;6.18;;;3.67;;
47866;SDS011;33628;50.806;11.586;2023-12-20T07:14:36;7.80;;;3.40;;
47866;SDS011;33628;50.806;11.586;2023-12-20T07:17:03;6.78;;;3.38;;
47866;SDS011;33628;50.806;11.586;2023-12-20T07:19:30;5.35;;;3.40;;
47866;SDS011;33628;50.806;11.586;2023-12-20T07:21:56;5.55;;;2.80;;
47866;SDS011;33628;50.806;11.586;2023-12-20T07:24:23;5.95;;;3.38;;
47866;SDS011;33628;50.806;11.586;2023-12-20T07:26:49;7.82;;;3.92;;
47866;SDS011;33628;50.806;11.586;2023-12-20T07:29:16;3.55;;;2.60;;
47866;SDS011;33628;50.806;11.586;2023-12-20T07:31:44;6.35;;;2.88;;
47866;SDS011;33628;50.806;11.586;2023-12-20T07:34:11;4.20;;;2.35;;
47866;SDS011;33628;50.806;11.586;2023-12-20T07:36:37;3.20;;;2.08;;
47866;SDS011;33628;50.806;11.586;2023-12-20T07:39:04;3.85;;;2.65;;
47866;SDS011;33628;50.806;11.586;2023-12-20T07:41:30;4.88;;;2.97;;
47866;SDS011;33628;50.806;11.586;2023-12-20T07:43:57;5.85;;;2.53;;
47866;SDS011;33628;50.806;11.586;2023-12-20T07:46:24;3.75;;;2.25;;
47866;SDS011;33628;50.806;11.586;2023-12-20T07:48:52;5.55;;;3.45;;
47866;SDS011;33628;50.806;11.586;2023-12-20T07:51:19;16.08;;;8.85;;
47866;SDS011;33628;50.806;11.586;2023-12-20T07:53:47;28.88;;;13.90;;
47866;SDS011;33628;50.806;11.586;2023-12-20T07:56:13;36.15;;;28.25;;
47866;SDS011;33628;50.806;11.586;2023-12-20T07:58:41;9.40;;;6.40;;
47866;SDS011;33628;50.806;11.586;2023-12-20T08:01:07;8.43;;;4.57;;
47866;SDS011;33628;50.806;11.586;2023-12-20T08:03:34;5.43;;;3.38;;
47866;SDS011;33628;50.806;11.586;2023-12-20T08:06:02;4.55;;;2.50;;
47866;SDS011;33628;50.806;11.586;2023-12-20T08:08:29;10.70;;;5.82;;
47866;SDS011;33628;50.806;11.586;2023-12-20T08:10:56;4.93;;;3.28;;
47866;SDS011;33628;50.806;11.586;2023-12-20T08:13:27;5.68;;;2.60;;
47866;SDS011;33628;50.806;11.586;2023-12-20T08:15:55;4.80;;;2.70;;
47866;SDS011;33628;50.806;11.586;2023-12-20T08:18:22;14.70;;;7.75;;
47866;SDS011;33628;50.806;11.586;2023-12-20T08:20:49;35.40;;;18.13;;
47866;SDS011;33628;50.806;11.586;2023-12-20T08:23:17;19.63;;;8.57;;
47866;SDS011;33628;50.806;11.586;2023-12-20T08:25:43;35.58;;;15.50;;
47866;SDS011;33628;50.806;11.586;2023-12-20T08:28:10;48.63;;;21.38;;
47866;SDS011;33628;50.806;11.586;2023-12-20T08:30:36;33.00;;;15.48;;
47866;SDS011;33628;50.806;11.586;2023-12-20T08:33:03;39.88;;;16.95;;
47866;SDS011;33628;50.806;11.586;2023-12-20T08:35:30;88.10;;;34.70;;
47866;SDS011;33628;50.806;11.586;2023-12-20T08:37:57;45.05;;;20.75;;
47866;SDS011;33628;50.806;11.586;2023-12-20T08:40:25;54.83;;;23.13;;
47866;SDS011;33628;50.806;11.586;2023-12-20T08:42:52;89.57;;;38.55;;
47866;SDS011;33628;50.806;11.586;2023-12-20T08:45:18;74.18;;;30.55;;
47866;SDS011;33628;50.806;11.586;2023-12-20T08:47:45;45.20;;;21.50;;
47866;SDS011;33628;50.806;11.586;2023-12-20T08:50:12;34.45;;;16.45;;
47866;SDS011;33628;50.806;11.586;2023-12-20T08:52:38;42.45;;;19.70;;
47866;SDS011;33628;50.806;11.586;2023-12-20T08:55:05;37.08;;;18.00;;
47866;SDS011;33628;50.806;11.586;2023-12-20T08:57:34;41.63;;;21.35;;
47866;SDS011;33628;50.806;11.586;2023-12-20T09:00:01;32.28;;;15.73;;
47866;SDS011;33628;50.806;11.586;2023-12-20T09:02:29;28.98;;;16.73;;
47866;SDS011;33628;50.806;11.586;2023-12-20T09:04:55;31.30;;;13.88;;
47866;SDS011;33628;50.806;11.586;2023-12-20T09:07:22;22.42;;;12.00;;
47866;SDS011;33628;50.806;11.586;2023-12-20T09:09:49;34.20;;;15.35;;
47866;SDS011;33628;50.806;11.586;2023-12-20T09:12:16;26.25;;;13.20;;
47866;SDS011;33628;50.806;11.586;2023-12-20T09:14:45;84.20;;;24.95;;
47866;SDS011;33628;50.806;11.586;2023-12-20T09:17:12;10.25;;;5.35;;
47866;SDS011;33628;50.806;11.586;2023-12-20T09:19:39;7.75;;;4.72;;
47866;SDS011;33628;50.806;11.586;2023-12-20T09:22:05;6.22;;;2.88;;
47866;SDS011;33628;50.806;11.586;2023-12-20T09:24:33;4.50;;;2.35;;
47866;SDS011;33628;50.806;11.586;2023-12-20T09:26:59;4.97;;;3.33;;
47866;SDS011;33628;50.806;11.586;2023-12-20T09:29:26;4.75;;;3.65;;
47866;SDS011;33628;50.806;11.586;2023-12-20T09:31:54;6.55;;;3.20;;
47866;SDS011;33628;50.806;11.586;2023-12-20T09:34:21;8.95;;;5.85;;
47866;SDS011;33628;50.806;11.586;2023-12-20T09:36:47;4.97;;;3.15;;
47866;SDS011;33628;50.806;11.586;2023-12-20T09:39:14;6.05;;;3.50;;
47866;SDS011;33628;50.806;11.586;2023-12-20T09:41:45;5.80;;;3.42;;
47866;SDS011;33628;50.806;11.586;2023-12-20T09:44:24;8.63;;;3.78;;
47866;SDS011;33628;50.806;11.586;2023-12-20T09:46:50;14.95;;;6.88;;
47866;SDS011;33628;50.806;11.586;2023-12-20T09:49:19;7.03;;;4.53;;
47866;SDS011;33628;50.806;11.586;2023-12-20T09:51:46;8.38;;;4.90;;
47866;SDS011;33628;50.806;11.586;2023-12-20T09:54:14;4.68;;;2.75;;
47866;SDS011;33628;50.806;11.586;2023-12-20T09:56:40;4.70;;;2.40;;
47866;SDS011;33628;50.806;11.586;2023-12-20T09:59:07;5.25;;;2.85;;
47866;SDS011;33628;50.806;11.586;2023-12-20T10:01:34;10.18;;;3.28;;
47866;SDS011;33628;50.806;11.586;2023-12-20T10:04:02;8.32;;;4.40;;
47866;SDS011;33628;50.806;11.586;2023-12-20T10:06:36;11.60;;;4.75;;
47866;SDS011;33628;50.806;11.586;2023-12-20T10:09:02;7.60;;;3.55;;
47866;SDS011;33628;50.806;11.586;2023-12-20T10:11:30;7.93;;;3.50;;
47866;SDS011;33628;50.806;11.586;2023-12-20T10:13:58;3.97;;;2.10;;
47866;SDS011;33628;50.806;11.586;2023-12-20T10:16:25;6.50;;;2.45;;
47866;SDS011;33628;50.806;11.586;2023-12-20T10:18:52;5.95;;;2.50;;
47866;SDS011;33628;50.806;11.586;2023-12-20T10:21:19;7.07;;;3.08;;
47866;SDS011;33628;50.806;11.586;2023-12-20T10:23:47;5.22;;;2.35;;
47866;SDS011;33628;50.806;11.586;2023-12-20T10:26:19;7.55;;;2.45;;
47866;SDS011;33628;50.806;11.586;2023-12-20T10:28:46;5.57;;;2.20;;
47866;SDS011;33628;50.806;11.586;2023-12-20T10:31:21;7.15;;;2.40;;
47866;SDS011;33628;50.806;11.586;2023-12-20T10:33:52;4.95;;;2.25;;
47866;SDS011;33628;50.806;11.586;2023-12-20T10:36:19;8.50;;;1.95;;
47866;SDS011;33628;50.806;11.586;2023-12-20T10:38:46;7.35;;;2.17;;
47866;SDS011;33628;50.806;11.586;2023-12-20T10:41:16;4.75;;;2.00;;
47866;SDS011;33628;50.806;11.586;2023-12-20T10:43:43;6.22;;;2.10;;
47866;SDS011;33628;50.806;11.586;2023-12-20T10:46:11;6.50;;;1.92;;
47866;SDS011;33628;50.806;11.586;2023-12-20T10:48:38;9.88;;;1.95;;
47866;SDS011;33628;50.806;11.586;2023-12-20T10:51:05;6.90;;;2.38;;
47866;SDS011;33628;50.806;11.586;2023-12-20T10:53:33;7.00;;;2.60;;
47866;SDS011;33628;50.806;11.586;2023-12-20T10:56:04;6.88;;;2.15;;
47866;SDS011;33628;50.806;11.586;2023-12-20T10:58:32;7.28;;;1.50;;
47866;SDS011;33628;50.806;11.586;2023-12-20T11:01:00;8.52;;;2.85;;
47866;SDS011;33628;50.806;11.586;2023-12-20T11:03:30;5.55;;;2.22;;
47866;SDS011;33628;50.806;11.586;2023-12-20T11:06:01;4.13;;;1.92;;
47866;SDS011;33628;50.806;11.586;2023-12-20T11:08:32;5.45;;;1.90;;
47866;SDS011;33628;50.806;11.586;2023-12-20T11:11:04;5.57;;;1.75;;
47866;SDS011;33628;50.806;11.586;2023-12-20T11:13:36;5.13;;;1.50;;
47866;SDS011;33628;50.806;11.586;2023-12-20T11:16:06;4.47;;;1.85;;
47866;SDS011;33628;50.806;11.586;2023-12-20T11:18:33;4.45;;;1.08;;
47866;SDS011;33628;50.806;11.586;2023-12-20T11:21:00;3.92;;;1.10;;
47866;SDS011;33628;50.806;11.586;2023-12-20T11:23:29;7.25;;;1.83;;
47866;SDS011;33628;50.806;11.586;2023-12-20T11:25:56;6.60;;;1.40;;
47866;SDS011;33628;50.806;11.586;2023-12-20T11:28:26;6.15;;;1.38;;
47866;SDS011;33628;50.806;11.586;2023-12-20T11:30:53;5.82;;;1.55;;
47866;SDS011;33628;50.806;11.586;2023-12-20T11:33:21;6.10;;;1.83;;
47866;SDS011;33628;50.806;11.586;2023-12-20T11:35:48;4.78;;;1.27;;
47866;SDS011;33628;50.806;11.586;2023-12-20T11:38:15;4.57;;;1.05;;
47866;SDS011;33628;50.806;11.586;2023-12-20T11:40:42;4.25;;;1.05;;
47866;SDS011;33628;50.806;11.586;2023-12-20T11:43:09;4.88;;;1.10;;
47866;SDS011;33628;50.806;11.586;2023-12-20T11:45:38;4.30;;;1.00;;
47866;SDS011;33628;50.806;11.586;2023-12-20T11:48:16;3.00;;;0.77;;
47866;SDS011;33628;50.806;11.586;2023-12-20T11:50:43;5.03;;;1.27;;
47866;SDS011;33628;50.806;11.586;2023-12-20T11:53:11;1.92;;;1.00;;
47866;SDS011;33628;50.806;11.586;2023-12-20T11:55:37;3.10;;;0.90;;
47866;SDS011;33628;50.806;11.586;2023-12-20T11:58:04;3.85;;;1.08;;
47866;SDS011;33628;50.806;11.586;2023-12-20T12:00:31;1.55;;;0.80;;
47866;SDS011;33628;50.806;11.586;2023-12-20T12:02:59;3.75;;;1.38;;
47866;SDS011;33628;50.806;11.586;2023-12-20T12:05:27;9.15;;;2.72;;
47866;SDS011;33628;50.806;11.586;2023-12-20T12:07:54;9.77;;;3.67;;
47866;SDS011;33628;50.806;11.586;2023-12-20T12:10:21;4.45;;;1.60;;
47866;SDS011;33628;50.806;11.586;2023-12-20T12:12:48;3.70;;;1.10;;
47866;SDS011;33628;50.806;11.586;2023-12-20T12:15:15;7.65;;;1.55;;
47866;SDS011;33628;50.806;11.586;2023-12-20T12:17:41;2.80;;;1.10;;
47866;SDS011;33628;50.806;11.586;2023-12-20T12:20:10;6.05;;;1.15;;
47866;SDS011;33628;50.806;11.586;2023-12-20T12:22:37;6.30;;;1.45;;
47866;SDS011;33628;50.806;11.586;2023-12-20T12:25:10;3.38;;;1.38;;
47866;SDS011;33628;50.806;11.586;2023-12-20T12:27:39;5.82;;;1.67;;
47866;SDS011;33628;50.806;11.586;2023-12-20T12:30:07;3.05;;;1.58;;
47866;SDS011;33628;50.806;11.586;2023-12-20T12:32:35;3.88;;;1.15;;
47866;SDS011;33628;50.806;11.586;2023-12-20T12:35:02;6.80;;;1.38;;
47866;SDS011;33628;50.806;11.586;2023-12-20T12:37:31;3.08;;;0.85;;
47866;SDS011;33628;50.806;11.586;2023-12-20T12:40:00;4.05;;;2.05;;
47866;SDS011;33628;50.806;11.586;2023-12-20T12:42:27;4.65;;;1.77;;
47866;SDS011;33628;50.806;11.586;2023-12-20T12:44:54;2.95;;;0.90;;
47866;SDS011;33628;50.806;11.586;2023-12-20T12:47:22;5.65;;;1.58;;
47866;SDS011;33628;50.806;11.586;2023-12-20T12:49:49;3.35;;;1.02;;
47866;SDS011;33628;50.806;11.586;2023-12-20T12:52:19;2.78;;;1.02;;
47866;SDS011;33628;50.806;11.586;2023-12-20T12:54:46;5.25;;;1.40;;
47866;SDS011;33628;50.806;11.586;2023-12-20T12:57:14;4.70;;;0.93;;
47866;SDS011;33628;50.806;11.586;2023-12-20T12:59:41;2.97;;;1.10;;
47866;SDS011;33628;50.806;11.586;2023-12-20T13:02:08;5.60;;;1.17;;
47866;SDS011;33628;50.806;11.586;2023-12-20T13:04:35;1.98;;;1.00;;
47866;SDS011;33628;50.806;11.586;2023-12-20T13:07:02;2.75;;;1.25;;
47866;SDS011;33628;50.806;11.586;2023-12-20T13:09:28;4.22;;;1.30;;
47866;SDS011;33628;50.806;11.586;2023-12-20T13:11:56;6.18;;;1.27;;
47866;SDS011;33628;50.806;11.586;2023-12-20T13:14:23;6.07;;;1.60;;
47866;SDS011;33628;50.806;11.586;2023-12-20T13:16:50;6.40;;;1.45;;
47866;SDS011;33628;50.806;11.586;2023-12-20T13:19:16;4.13;;;1.48;;
47866;SDS011;33628;50.806;11.586;2023-12-20T13:21:43;2.90;;;1.30;;
47866;SDS011;33628;50.806;11.586;2023-12-20T13:24:09;3.83;;;1.10;;
47866;SDS011;33628;50.806;11.586;2023-12-20T13:26:36;4.53;;;1.13;;
47866;SDS011;33628;50.806;11.586;2023-12-20T13:29:05;4.95;;;1.50;;
47866;SDS011;33628;50.806;11.586;2023-12-20T13:31:31;2.35;;;1.20;;
47866;SDS011;33628;50.806;11.586;2023-12-20T13:33:58;22.42;;;6.43;;
47866;SDS011;33628;50.806;11.586;2023-12-20T13:36:26;112.07;;;29.20;;
47866;SDS011;33628;50.806;11.586;2023-12-20T13:38:52;48.42;;;12.85;;
47866;SDS011;33628;50.806;11.586;2023-12-20T13:41:20;6.93;;;3.80;;
47866;SDS011;33628;50.806;11.586;2023-12-20T13:43:46;9.70;;;3.13;;
47866;SDS011;33628;50.806;11.586;2023-12-20T13:46:15;13.23;;;2.75;;
47866;SDS011;33628;50.806;11.586;2023-12-20T13:48:43;11.00;;;1.90;;
47866;SDS011;33628;50.806;11.586;2023-12-20T13:51:09;6.07;;;2.17;;
47866;SDS011;33628;50.806;11.586;2023-12-20T13:53:36;8.07;;;2.67;;
47866;SDS011;33628;50.806;11.586;2023-12-20T13:56:04;8.88;;;2.47;;
47866;SDS011;33628;50.806;11.586;2023-12-20T13:58:32;5.32;;;1.67;;
47866;SDS011;33628;50.806;11.586;2023-12-20T14:00:58;6.72;;;3.05;;
47866;SDS011;33628;50.806;11.586;2023-12-20T14:03:26;5.95;;;2.25;;
47866;SDS011;33628;50.806;11.586;2023-12-20T14:05:53;6.07;;;1.55;;
47866;SDS011;33628;50.806;11.586;2023-12-20T14:08:20;5.97;;;1.88;;
47866;SDS011;33628;50.806;11.586;2023-12-20T14:10:47;4.70;;;1.50;;
47866;SDS011;33628;50.806;11.586;2023-12-20T14:13:14;6.97;;;1.83;;
47866;SDS011;33628;50.806;11.586;2023-12-20T14:15:41;9.65;;;1.95;;
47866;SDS011;33628;50.806;11.586;2023-12-20T14:18:07;8.00;;;1.83;;
47866;SDS011;33628;50.806;11.586;2023-12-20T14:20:36;12.00;;;3.30;;
47866;SDS011;33628;50.806;11.586;2023-12-20T14:23:05;8.13;;;2.60;;
47866;SDS011;33628;50.806;11.586;2023-12-20T14:25:31;8.48;;;2.80;;
47866;SDS011;33628;50.806;11.586;2023-12-20T14:27:58;12.50;;;4.32;;
47866;SDS011;33628;50.806;11.586;2023-12-20T14:30:25;34.63;;;13.73;;
47866;SDS011;33628;50.806;11.586;2023-12-20T14:32:52;11.50;;;4.88;;
47866;SDS011;33628;50.806;11.586;2023-12-20T14:35:18;24.90;;;10.30;;